createdAt,value
2023-04-28T00:01:30.611Z,97754.63
2023-04-28T00:04:18.032Z,97761.72
2023-04-28T00:07:05.319Z,97762.66
2023-04-28T00:09:52.243Z,97747.94
2023-04-28T00:12:39.224Z,97756.56
2023-04-28T00:15:26.095Z,97755.25
2023-04-28T00:18:13.083Z,97748.25
2023-04-28T00:21:01.937Z,97742.03
2023-04-28T00:23:48.896Z,97743.31
2023-04-28T00:26:36.028Z,97745.47
2023-04-28T00:29:23.069Z,97738.06
2023-04-28T00:32:10.655Z,97737.88
2023-04-28T00:34:58.008Z,97738.72
2023-04-28T00:37:44.947Z,97739.03
2023-04-28T00:40:35.937Z,97744.28
2023-04-28T00:43:22.913Z,97744.72
2023-04-28T00:46:10.822Z,97746.88
2023-04-28T00:48:58.632Z,97746.53
2023-04-28T00:51:45.801Z,97738.47
2023-04-28T00:54:34.682Z,97744.94
2023-04-28T00:57:22.409Z,97743.69
2023-04-28T01:00:10.133Z,97739.69
2023-04-28T01:02:57.900Z,97740.03
2023-04-28T01:05:45.158Z,97733.16
2023-04-28T01:08:32.848Z,97726.25
2023-04-28T01:11:19.791Z,97734.19
2023-04-28T01:14:06.716Z,97724.81
2023-04-28T01:16:54.247Z,97730.97
2023-04-28T01:19:41.753Z,97739.13
2023-04-28T01:22:28.678Z,97738.38
2023-04-28T01:25:15.748Z,97732.09
2023-04-28T01:28:02.663Z,97737.53
2023-04-28T01:30:49.587Z,97730.63
2023-04-28T01:33:37.005Z,97732.03
2023-04-28T01:36:24.054Z,97727.63
2023-04-28T01:39:10.965Z,97720.88
2023-04-28T01:41:57.897Z,97729.66
2023-04-28T01:44:44.823Z,97725.91
2023-04-28T01:47:32.115Z,97724.44
2023-04-28T01:50:19.173Z,97712.31
2023-04-28T01:53:06.076Z,97708.88
2023-04-28T01:55:53.955Z,97708.34
2023-04-28T01:58:40.937Z,97710.16
2023-04-28T02:01:27.910Z,97706.56
2023-04-28T02:04:15.061Z,97697.66
2023-04-28T02:07:03.191Z,97691.47
2023-04-28T02:09:50.080Z,97690.63
2023-04-28T02:12:36.994Z,97692.81
2023-04-28T02:15:24.309Z,97696.41
2023-04-28T02:18:11.495Z,97699.53
2023-04-28T02:20:58.449Z,97703.94
2023-04-28T02:23:45.783Z,97705.50
2023-04-28T02:26:36.255Z,97710.50
2023-04-28T02:29:24.643Z,97702.97
2023-04-28T02:32:11.910Z,97708.94
2023-04-28T02:34:58.878Z,97697.88
2023-04-28T02:37:46.532Z,97699.31
2023-04-28T02:40:33.444Z,97699.75
2023-04-28T02:43:20.377Z,97705.41
2023-04-28T02:46:07.391Z,97708.13
2023-04-28T02:48:54.764Z,97708.66
2023-04-28T02:51:41.776Z,97700.41
2023-04-28T02:54:28.762Z,97699.97
2023-04-28T02:57:15.682Z,97697.25
2023-04-28T03:00:02.723Z,97698.81
2023-04-28T03:02:49.740Z,97698.94
2023-04-28T03:05:36.748Z,97690.69
2023-04-28T03:08:23.873Z,97695.66
2023-04-28T03:11:11.484Z,97688.25
2023-04-28T03:13:58.437Z,97691.72
2023-04-28T03:16:45.525Z,97697.66
2023-04-28T03:19:33.412Z,97694.84
2023-04-28T03:22:20.660Z,97686.63
2023-04-28T03:25:08.184Z,97679.59
2023-04-28T03:27:55.128Z,97677.94
2023-04-28T03:30:42.243Z,97671.53
2023-04-28T03:33:29.181Z,97678.88
2023-04-28T03:36:16.808Z,97680.66
2023-04-28T03:39:04.170Z,97678.66
2023-04-28T03:41:51.081Z,97675.84
2023-04-28T03:44:38.101Z,97678.88
2023-04-28T03:47:25.003Z,97674.25
2023-04-28T03:50:11.969Z,97671.25
2023-04-28T03:53:00.510Z,97668.34
2023-04-28T03:55:47.528Z,97664.66
2023-04-28T03:58:34.429Z,97661.88
2023-04-28T04:01:21.418Z,97660.94
2023-04-28T04:04:08.764Z,97668.88
2023-04-28T04:06:56.441Z,97660.22
2023-04-28T04:09:43.390Z,97653.97
2023-04-28T04:12:30.617Z,97653.66
2023-04-28T04:15:17.544Z,97646.44
2023-04-28T04:18:04.781Z,97654.78
2023-04-28T04:20:53.709Z,97653.63
2023-04-28T04:23:43.988Z,97654.84
2023-04-28T04:26:30.993Z,97647.75
2023-04-28T04:29:17.993Z,97641.59
2023-04-28T04:32:05.189Z,97651.25
2023-04-28T04:34:52.264Z,97655.97
2023-04-28T04:37:39.692Z,97649.03
2023-04-28T04:40:26.823Z,97648.88
2023-04-28T04:43:13.770Z,97651.81
2023-04-28T04:46:00.837Z,97649.88
2023-04-28T04:48:47.952Z,97639.63
2023-04-28T04:51:34.905Z,97645.63
2023-04-28T04:54:21.824Z,97642.19
2023-04-28T04:57:08.952Z,97642.91
2023-04-28T04:59:56.084Z,97638.75
2023-04-28T05:02:43.145Z,97630.59
2023-04-28T05:05:30.302Z,97642.09
2023-04-28T05:08:17.363Z,97641.22
2023-04-28T05:11:04.826Z,97641.81
2023-04-28T05:13:51.890Z,97641.19
2023-04-28T05:16:39.426Z,97643.81
2023-04-28T05:19:26.408Z,97638.06
2023-04-28T05:22:13.377Z,97639.94
2023-04-28T05:25:01.754Z,97643.75
2023-04-28T05:27:48.713Z,97659.94
2023-04-28T05:30:35.857Z,97662.78
2023-04-28T05:33:24.081Z,97655.38
2023-04-28T05:36:11.100Z,97656.97
2023-04-28T05:38:58.137Z,97658.44
2023-04-28T05:41:45.185Z,97650.09
2023-04-28T05:44:32.102Z,97647.97
2023-04-28T05:47:19.085Z,97653.13
2023-04-28T05:50:06.991Z,97649.38
2023-04-28T05:52:54.273Z,97650.34
2023-04-28T05:55:41.237Z,97648.88
2023-04-28T05:58:28.237Z,97649.81
2023-04-28T06:01:15.217Z,97638.22
2023-04-28T06:04:02.512Z,97639.50
2023-04-28T06:06:50.610Z,97641.31
2023-04-28T06:09:37.533Z,97638.94
2023-04-28T06:12:24.500Z,97635.44
2023-04-28T06:15:11.751Z,97626.47
2023-04-28T06:17:59.209Z,97626.97
2023-04-28T06:20:46.356Z,97619.84
2023-04-28T06:23:33.311Z,97628.56
2023-04-28T06:26:20.520Z,97627.66
2023-04-28T06:29:07.457Z,97622.13
2023-04-28T06:31:57.718Z,97621.34
2023-04-28T06:34:44.713Z,97620.19
2023-04-28T06:37:31.663Z,97611.03
2023-04-28T06:40:18.720Z,97606.44
2023-04-28T06:43:06.629Z,97601.44
2023-04-28T06:45:53.564Z,97593.94
2023-04-28T06:48:40.596Z,97599.13
2023-04-28T06:51:28.803Z,97599.31
2023-04-28T06:54:16.938Z,97590.72
2023-04-28T06:57:04.148Z,97585.75
2023-04-28T06:59:51.264Z,97590.28
2023-04-28T07:02:38.370Z,97593.06
2023-04-28T07:05:25.508Z,97593.66
2023-04-28T07:08:12.508Z,97597.53
2023-04-28T07:11:04.601Z,97593.91
2023-04-28T07:13:51.747Z,97587.00
2023-04-28T07:16:38.793Z,97588.16
2023-04-28T07:19:25.851Z,97593.28
2023-04-28T07:22:12.806Z,97591.25
2023-04-28T07:24:59.954Z,97591.72
2023-04-28T07:27:47.186Z,97585.75
2023-04-28T07:30:34.576Z,97605.16
2023-04-28T07:33:21.719Z,97599.28
2023-04-28T07:36:08.673Z,97595.06
2023-04-28T07:38:55.730Z,97585.34
2023-04-28T07:41:42.689Z,97586.28
2023-04-28T07:44:30.192Z,97590.63
2023-04-28T07:47:17.148Z,97600.38
2023-04-28T07:50:06.502Z,97583.91
2023-04-28T07:52:53.700Z,97574.25
2023-04-28T07:55:44.793Z,97577.09
2023-04-28T07:58:31.778Z,97574.47
2023-04-28T08:01:19.097Z,97577.69
2023-04-28T08:04:06.572Z,97578.00
2023-04-28T08:06:54.241Z,97577.47
2023-04-28T08:09:44.033Z,97574.63
2023-04-28T08:12:31.464Z,97566.84
2023-04-28T08:15:18.827Z,97563.38
2023-04-28T08:18:05.890Z,97567.28
2023-04-28T08:20:52.877Z,97559.03
2023-04-28T08:23:39.861Z,97562.66
2023-04-28T08:26:26.824Z,97572.34
2023-04-28T08:29:13.829Z,97561.94
2023-04-28T08:32:04.782Z,97561.06
2023-04-28T08:34:51.752Z,97555.00
2023-04-28T08:37:38.976Z,97554.84
2023-04-28T08:40:26.965Z,97550.06
2023-04-28T08:43:15.080Z,97546.63
2023-04-28T08:46:06.956Z,97541.97
2023-04-28T08:48:59.629Z,97543.84
2023-04-28T08:51:57.396Z,97533.88
2023-04-28T08:54:44.542Z,97531.06
2023-04-28T08:57:44.806Z,97528.91
2023-04-28T09:00:32.545Z,97523.31
2023-04-28T09:03:19.776Z,97527.34
2023-04-28T09:06:06.804Z,97523.03
2023-04-28T09:08:53.769Z,97521.81
2023-04-28T09:11:51.359Z,97526.84
2023-04-28T09:14:39.561Z,97520.44
2023-04-28T09:17:26.546Z,97512.84
2023-04-28T09:20:24.432Z,97507.59
2023-04-28T09:23:22.326Z,97497.53
2023-04-28T09:26:09.193Z,97497.53
2023-04-28T09:29:13.014Z,97491.06
2023-04-28T09:32:17.968Z,97496.22
2023-04-28T09:35:07.394Z,97494.78
2023-04-28T09:37:58.989Z,97491.50
2023-04-28T09:41:02.875Z,97485.59
2023-04-28T09:43:50.722Z,97487.34
2023-04-28T09:46:37.636Z,97475.88
2023-04-28T09:49:24.592Z,97476.09
2023-04-28T09:52:14.348Z,97466.25
2023-04-28T09:55:06.317Z,97477.16
2023-04-28T09:57:55.102Z,97474.09
2023-04-28T10:00:42.392Z,97468.06
2023-04-28T10:03:30.984Z,97472.81
2023-04-28T10:06:18.318Z,97466.28
2023-04-28T10:09:06.226Z,97465.31
2023-04-28T10:11:53.578Z,97466.81
2023-04-28T10:14:42.665Z,97462.59
2023-04-28T10:17:30.072Z,97461.31
2023-04-28T10:20:17.345Z,97461.25
2023-04-28T10:23:39.376Z,97457.38
2023-04-28T10:27:06.215Z,97447.09
2023-04-28T10:29:53.492Z,97442.31
2023-04-28T10:32:41.366Z,97442.22
2023-04-28T10:35:48.599Z,97444.56
2023-04-28T10:38:36.648Z,97439.66
2023-04-28T10:41:33.426Z,97435.78
2023-04-28T10:44:49.728Z,97440.84
2023-04-28T10:48:06.312Z,97433.31
2023-04-28T10:51:28.420Z,97433.50
2023-04-28T10:54:16.346Z,97435.06
2023-04-28T10:57:16.120Z,97429.00
2023-04-28T11:00:28.669Z,97435.53
2023-04-28T11:04:00.972Z,97436.16
2023-04-28T11:07:12.931Z,97425.03
2023-04-28T11:09:59.808Z,97425.44
2023-04-28T11:13:25.676Z,97427.19
2023-04-28T11:16:20.673Z,97440.66
2023-04-28T11:19:11.588Z,97432.50
2023-04-28T11:22:01.075Z,97437.75
2023-04-28T11:25:06.176Z,97441.50
2023-04-28T11:27:53.048Z,97454.84
2023-04-28T11:30:39.914Z,97447.75
2023-04-28T11:33:28.162Z,97453.66
2023-04-28T11:36:36.794Z,97464.97
2023-04-28T11:39:31.029Z,97467.00
2023-04-28T11:42:18.070Z,97467.09
2023-04-28T11:45:06.916Z,97471.88
2023-04-28T11:47:53.941Z,97480.00
2023-04-28T11:50:40.918Z,97486.66
2023-04-28T11:54:01.011Z,97482.31
2023-04-28T11:56:48.255Z,97493.56
2023-04-28T11:59:36.129Z,97484.75
2023-04-28T12:02:30.853Z,97495.59
2023-04-28T12:05:18.048Z,97492.00
2023-04-28T12:08:05.250Z,97498.06
2023-04-28T12:11:12.932Z,97496.75
2023-04-28T12:14:06.288Z,97495.91
2023-04-28T12:16:53.754Z,97504.16
2023-04-28T12:19:45.694Z,97509.75
2023-04-28T12:22:47.690Z,97522.06
2023-04-28T12:25:44.042Z,97512.81
2023-04-28T12:28:40.450Z,97514.13
2023-04-28T12:31:27.471Z,97514.97
2023-04-28T12:34:14.927Z,97519.47
2023-04-28T12:37:05.581Z,97526.81
2023-04-28T12:39:52.521Z,97525.53
2023-04-28T12:42:39.359Z,97530.88
2023-04-28T12:45:26.265Z,97527.41
2023-04-28T12:48:13.189Z,97533.19
2023-04-28T12:51:00.143Z,97532.47
2023-04-28T12:53:47.158Z,97523.50
2023-04-28T12:56:34.305Z,97527.25
2023-04-28T12:59:22.285Z,97526.56
2023-04-28T13:02:10.773Z,97524.69
2023-04-28T13:04:57.697Z,97515.84
2023-04-28T13:07:45.308Z,97516.59
2023-04-28T13:10:32.450Z,97513.41
2023-04-28T13:13:19.336Z,97510.81
2023-04-28T13:16:06.617Z,97508.63
2023-04-28T13:18:53.641Z,97512.97
2023-04-28T13:21:42.427Z,97507.06
2023-04-28T13:24:29.919Z,97502.72
2023-04-28T13:27:16.798Z,97500.41
2023-04-28T13:30:05.434Z,97496.38
2023-04-28T13:32:52.467Z,97498.53
2023-04-28T13:35:39.483Z,97489.16
2023-04-28T13:38:27.081Z,97468.66
2023-04-28T13:41:14.165Z,97461.44
2023-04-28T13:44:01.095Z,97470.41
2023-04-28T13:46:48.500Z,97473.44
2023-04-28T13:49:37.593Z,97467.38
2023-04-28T13:52:24.972Z,97441.53
2023-04-28T13:55:12.129Z,97430.41
2023-04-28T13:58:02.687Z,97424.50
2023-04-28T14:00:49.641Z,97410.78
2023-04-28T14:03:37.542Z,97373.00
2023-04-28T14:06:24.698Z,97377.19
2023-04-28T14:09:11.673Z,97367.53
2023-04-28T14:11:58.751Z,97374.88
2023-04-28T14:14:47.862Z,97380.34
2023-04-28T14:17:36.583Z,97398.25
2023-04-28T14:20:23.691Z,97393.63
2023-04-28T14:23:10.611Z,97403.16
2023-04-28T14:25:58.295Z,97395.34
2023-04-28T14:28:45.234Z,97395.22
2023-04-28T14:31:32.225Z,97398.38
2023-04-28T14:34:19.168Z,97397.50
2023-04-28T14:37:06.528Z,97398.97
2023-04-28T14:39:53.510Z,97404.03
2023-04-28T14:42:40.653Z,97400.84
2023-04-28T14:45:27.766Z,97405.38
2023-04-28T14:48:15.434Z,97407.50
2023-04-28T14:51:02.430Z,97400.59
2023-04-28T14:53:49.749Z,97389.75
2023-04-28T14:56:36.641Z,97402.31
2023-04-28T14:59:23.640Z,97407.50
2023-04-28T15:02:10.811Z,97404.88
2023-04-28T15:04:58.322Z,97407.78
2023-04-28T15:07:45.585Z,97398.31
2023-04-28T15:10:39.600Z,97394.44
2023-04-28T15:13:27.914Z,97396.91
2023-04-28T15:16:14.864Z,97400.66
2023-04-28T15:19:01.768Z,97399.75
2023-04-28T15:21:49.168Z,97397.75
2023-04-28T15:24:36.272Z,97393.88
2023-04-28T15:27:23.395Z,97398.63
2023-04-28T15:30:11.087Z,97401.34
2023-04-28T15:32:57.990Z,97392.41
2023-04-28T15:35:45.528Z,97389.66
2023-04-28T15:38:32.797Z,97387.13
2023-04-28T15:41:19.723Z,97381.94
2023-04-28T15:44:07.421Z,97385.84
2023-04-28T15:46:55.334Z,97373.16
2023-04-28T15:49:42.208Z,97373.84
2023-04-28T15:52:29.127Z,97374.16
2023-04-28T15:55:17.822Z,97364.19
2023-04-28T15:58:05.105Z,97362.03
2023-04-28T16:00:52.210Z,97361.31
2023-04-28T16:03:39.984Z,97355.69
2023-04-28T16:06:27.265Z,97350.22
2023-04-28T16:09:14.950Z,97356.38
2023-04-28T16:12:04.393Z,97357.09
2023-04-28T16:14:51.419Z,97347.13
2023-04-28T16:17:39.139Z,97343.66
2023-04-28T16:20:26.103Z,97333.56
2023-04-28T16:23:14.131Z,97341.19
2023-04-28T16:26:01.485Z,97336.13
2023-04-28T16:28:48.356Z,97336.56
2023-04-28T16:31:35.800Z,97333.41
2023-04-28T16:34:22.764Z,97343.66
2023-04-28T16:37:10.901Z,97342.34
2023-04-28T16:39:57.814Z,97343.59
2023-04-28T16:42:45.230Z,97346.22
2023-04-28T16:45:32.117Z,97332.94
2023-04-28T16:48:20.737Z,97328.47
2023-04-28T16:51:11.003Z,97339.44
2023-04-28T16:53:57.844Z,97338.53
2023-04-28T16:56:44.765Z,97338.09
2023-04-28T16:59:33.282Z,97348.31
2023-04-28T17:02:20.382Z,97353.25
2023-04-28T17:05:08.133Z,97344.31
2023-04-28T17:07:55.231Z,97347.06
2023-04-28T17:10:42.168Z,97341.81
2023-04-28T17:13:29.096Z,97352.97
2023-04-28T17:16:16.275Z,97350.25
2023-04-28T17:19:04.636Z,97351.53
2023-04-28T17:21:54.695Z,97346.22
2023-04-28T17:24:41.625Z,97349.09
2023-04-28T17:27:28.557Z,97340.91
2023-04-28T17:30:15.738Z,97345.50
2023-04-28T17:33:02.933Z,97335.44
2023-04-28T17:35:50.116Z,97330.66
2023-04-28T17:38:38.468Z,97323.50
2023-04-28T17:41:26.031Z,97315.41
2023-04-28T17:44:13.016Z,97308.81
2023-04-28T17:47:01.300Z,97292.81
2023-04-28T17:49:48.383Z,97279.16
2023-04-28T17:52:36.426Z,97277.13
2023-04-28T17:55:23.521Z,97278.44
2023-04-28T17:58:10.781Z,97317.19
2023-04-28T18:01:05.183Z,97320.91
2023-04-28T18:03:52.425Z,97330.94
2023-04-28T18:06:39.270Z,97340.44
2023-04-28T18:09:27.137Z,97339.28
2023-04-28T18:12:14.037Z,97336.91
2023-04-28T18:15:01.408Z,97327.69
2023-04-28T18:17:48.380Z,97315.59
2023-04-28T18:20:35.356Z,97321.50
2023-04-28T18:23:23.378Z,97319.38
2023-04-28T18:26:11.416Z,97339.69
2023-04-28T18:28:58.348Z,97329.00
2023-04-28T18:31:46.272Z,97323.28
2023-04-28T18:34:33.313Z,97310.19
2023-04-28T18:37:20.374Z,97324.75
2023-04-28T18:40:07.422Z,97324.91
2023-04-28T18:42:54.415Z,97330.31
2023-04-28T18:45:42.246Z,97326.16
2023-04-28T18:48:30.559Z,97318.66
2023-04-28T18:51:17.728Z,97319.25
2023-04-28T18:54:05.788Z,97321.22
2023-04-28T18:56:52.757Z,97323.84
2023-04-28T18:59:39.929Z,97323.94
2023-04-28T19:02:26.976Z,97322.97
2023-04-28T19:05:13.993Z,97330.91
2023-04-28T19:08:01.005Z,97348.44
2023-04-28T19:10:49.085Z,97349.28
2023-04-28T19:13:39.063Z,97347.13
2023-04-28T19:16:26.181Z,97352.28
2023-04-28T19:19:13.563Z,97345.53
2023-04-28T19:22:00.852Z,97347.66
2023-04-28T19:24:47.760Z,97349.44
2023-04-28T19:27:38.108Z,97364.31
2023-04-28T19:30:25.143Z,97353.63
2023-04-28T19:33:12.114Z,97361.28
2023-04-28T19:36:00.221Z,97354.94
2023-04-28T19:38:47.255Z,97348.75
2023-04-28T19:41:35.906Z,97346.59
2023-04-28T19:44:22.934Z,97354.19
2023-04-28T19:47:12.337Z,97354.34
2023-04-28T19:49:59.738Z,97348.44
2023-04-28T19:52:47.143Z,97364.00
2023-04-28T19:55:34.093Z,97358.38
2023-04-28T19:58:22.167Z,97366.50
2023-04-28T20:01:09.285Z,97369.56
2023-04-28T20:03:56.399Z,97373.16
2023-04-28T20:06:43.554Z,97366.41
2023-04-28T20:09:31.483Z,97366.81
2023-04-28T20:12:18.449Z,97356.63
2023-04-28T20:15:06.442Z,97359.38
2023-04-28T20:17:53.551Z,97362.44
2023-04-28T20:20:40.482Z,97360.81
2023-04-28T20:23:29.221Z,97358.97
2023-04-28T20:26:16.601Z,97354.09
2023-04-28T20:29:03.592Z,97374.09
2023-04-28T20:31:50.777Z,97376.31
2023-04-28T20:34:38.515Z,97371.06
2023-04-28T20:37:26.350Z,97372.22
2023-04-28T20:40:13.695Z,97376.22
2023-04-28T20:43:02.164Z,97379.53
2023-04-28T20:45:49.417Z,97387.72
2023-04-28T20:48:36.821Z,97390.78
2023-04-28T20:51:24.084Z,97389.66
2023-04-28T20:54:11.876Z,97386.91
2023-04-28T20:56:59.208Z,97393.34
2023-04-28T20:59:46.517Z,97388.94
2023-04-28T21:02:33.657Z,97401.31
2023-04-28T21:05:20.969Z,97391.34
2023-04-28T21:08:07.939Z,97388.88
2023-04-28T21:10:55.311Z,97388.28
2023-04-28T21:13:43.766Z,97389.16
2023-04-28T21:16:30.781Z,97389.75
2023-04-28T21:19:18.516Z,97391.19
2023-04-28T21:22:05.475Z,97382.19
2023-04-28T21:24:54.475Z,97390.09
2023-04-28T21:27:41.397Z,97387.66
2023-04-28T21:30:28.490Z,97389.84
2023-04-28T21:33:15.574Z,97375.28
2023-04-28T21:36:08.003Z,97361.09
2023-04-28T21:38:54.980Z,97351.88
2023-04-28T21:41:42.380Z,97337.94
2023-04-28T21:44:29.270Z,97321.22
2023-04-28T21:47:19.200Z,97331.72
2023-04-28T21:50:07.282Z,97335.88
2023-04-28T21:52:54.381Z,97335.72
2023-04-28T21:55:42.882Z,97334.09
2023-04-28T21:58:29.815Z,97346.81
2023-04-28T22:01:18.038Z,97354.84
2023-04-28T22:04:08.682Z,97360.91
2023-04-28T22:06:56.388Z,97372.38
2023-04-28T22:09:43.277Z,97375.28
2023-04-28T22:12:30.187Z,97376.31
2023-04-28T22:15:17.257Z,97381.47
2023-04-28T22:18:04.276Z,97377.06
2023-04-28T22:20:51.368Z,97379.91
2023-04-28T22:23:38.211Z,97374.69
2023-04-28T22:26:25.863Z,97380.31
2023-04-28T22:29:12.737Z,97384.81
2023-04-28T22:31:59.723Z,97381.59
2023-04-28T22:34:48.128Z,97372.38
2023-04-28T22:37:35.660Z,97366.63
2023-04-28T22:40:22.582Z,97365.91
2023-04-28T22:43:09.481Z,97355.69
2023-04-28T22:45:57.692Z,97356.50
2023-04-28T22:48:45.194Z,97350.59
2023-04-28T22:51:32.113Z,97349.69
2023-04-28T22:54:18.981Z,97342.03
2023-04-28T22:57:05.987Z,97345.34
2023-04-28T22:59:53.399Z,97342.31
2023-04-28T23:02:40.711Z,97354.28
2023-04-28T23:05:27.761Z,97359.34
2023-04-28T23:08:14.695Z,97363.44
2023-04-28T23:11:02.266Z,97366.31
2023-04-28T23:13:49.180Z,97354.13
2023-04-28T23:16:36.319Z,97346.16
2023-04-28T23:19:23.359Z,97344.41
2023-04-28T23:22:10.321Z,97348.25
2023-04-28T23:24:57.249Z,97349.38
2023-04-28T23:27:44.451Z,97342.31
2023-04-28T23:30:31.373Z,97348.75
2023-04-28T23:33:18.282Z,97340.38
2023-04-28T23:36:05.922Z,97340.38
2023-04-28T23:38:52.877Z,97334.53
2023-04-28T23:41:39.784Z,97334.28
2023-04-28T23:44:26.771Z,97340.69
2023-04-28T23:47:14.455Z,97334.78
2023-04-28T23:50:01.384Z,97326.28
2023-04-28T23:52:48.575Z,97330.59
2023-04-28T23:55:35.575Z,97324.41
2023-04-28T23:58:22.571Z,97321.66
